Terminal Aerodrome Forecast
Issued by NWS

Current Version | Previous Version | Text Only | Print | Product List | Glossary On
Versions: 1 2 3 4 5 6 7 8 9 10 11 12 13
765
FTUS45 KPIH 300520
TAFSUN
TAF
KSUN 300520Z 3006/0106 32006KT P6SM SCT070 BKN120
     FM301800 15006KT P6SM BKN050 BKN090
     FM302200 32010KT P6SM SCT060 SCT130 BKN180
      AMD LTD TO CLD VIS AND WIND TIL 301300=

USA.gov is the U.S. government's official web portal to all federal, state and local government web resources and services.